Split, Croatia

11:54 PM CEST on October 20, 2014 (GMT +0200)
Split | Change Station
CLOSE
Current Station
Personal Weather Station
Location: Split, DALMATIA
Elevation: 40 ft
Nearby Weather Stations

Elev 40 ft 43.51 °N, 16.43 °E | Updated 2 minutes ago

Partly Cloudy
Partly Cloudy
64.2 °F
Feels Like 64.2 °F
N
0.0
Wind Variable Wind from WNW
Gusts 2.2 mph

Today
High -- | Low -- °F
--% Chance of Precip.
Yesterday
High -- | Low -- °F
Precip. -- in
7:14 AM 6:03 PM
Waning Crescent, 9% visible
Pressure 30.09 in
Visibility 6.2 miles
Clouds Few 3700 ft
Dew Point 59 °F
Humidity 82%
Rainfall 0.00 in
Snow Depth Not available.
UV 0 out of 12
Pollen Not available.
Air Quality Not available.
Flu Activity Not available.
METAR LDSP 202130Z VRB01KT 9999 FEW037 15/13 Q1019

More Conditions Fewer Conditions

Pressure 30.09 in
Visibility 6.2 miles
Clouds Few 3700 ft
Dew Point 59 °F
Humidity 82%
Rainfall 0.00 in
Snow Depth Not available.
UV 0 out of 12
Pollen Not available.
Air Quality Not available.
Flu Activity Not available.
METAR LDSP 202130Z VRB01KT 9999 FEW037 15/13 Q1019

More Conditions Fewer Conditions

10-Day Weather Forecast

Almanac

Astronomy

Oct. 20, 2014 Rise Set
Actual Time 7:14 AM CEST 6:03 PM CEST
Civil Twilight 6:45 AM CEST 6:32 PM CEST
Nautical Twilight 6:11 AM CEST 7:05 PM CEST
Astronomical Twilight 5:38 AM CEST 7:38 PM CEST
Moon 3:40 AM CEST 4:22 PM CEST
Length of Visible Light 11h 47m
Length of Day
10h 49m
Tomorrow will be 2m 50s shorter.
Waning Crescent, 9% of the Moon is Illuminated
Today
Waning Crescent
Oct 23
New
Oct 30
First Quarter
Nov 6
Full
Nov 14
Last Quarter

Today's Extremes

Country Highs Country Lows

Community

WunderPhotos

Upload Photos

1,763,527 photos uploaded!

WunderBlogs® & News

Nearby

Snow Depth

Not available.

Earthquake Activity

City Distance Mag. Time & Date
No recent earthquake activity has been reported nearby.
Minimum magnitude displayed is 2.5.

Coastal Water Temperatures

Place Temperature
No Stations Reporting

Nearby Weather Stations